Las Vegas, Nevada (DRI) Weather observations

Data are for observation ending at time listed.
 Day   Time    Ave.   Ave.  Ave.  Vector   Max.   Stn.    Total    Solar   Ave.  
  of    of     Air    Rel.  Wind   Wind    Wind   Baro.  Precip.   Rad.    Soil  
Year   Day     Temp.  Hum.  Speed  Dir.    Gust   Pres.                    Temp. 
2015   (PST)    F      %     mph   deg.    mph     mb.     in.     W/m2     F   
------------------------------------------------------------------------------
  26    1:20   55.6    46    0.0     0      0.0   950.4    0.00       0    59.9
  26    1:30   55.1    47    0.2   182      1.7   950.4    0.00       0    59.8
  26    1:40   54.1    49    0.4   188      1.2   950.4    0.00       0    59.7
  26    1:50   53.9    50    0.0     0      0.0   950.4    0.00       0    59.7
  26    2:00   53.3    51    0.3    58      2.0   950.4    0.00       0    59.6
  26    2:10   52.9    52    0.1    34      1.6   950.3    0.00       0    59.6
  26    2:20   52.9    52    0.0     0      0.0   950.3    0.00       0    59.5
  26    2:30   52.4    52    0.0     0      0.0   950.3    0.00       0    59.4
  26    2:40   52.6    52    0.0    30      0.7   950.2    0.00       0    59.4
  26    2:50   52.1    53    0.0     0      0.0   950.2    0.00       0    59.3
  26    3:00   51.8    53    0.3   134      1.4   950.1    0.00       0    59.2
  26    3:10   52.2    50    0.5   150      2.3   950.2    0.00       0    59.2
  26    3:20   52.6    48    1.1   156      3.0   950.2    0.00       0    59.1
  26    3:30   52.3    48    0.8   179      3.0   950.1    0.00       0    59.0
  26    3:40   51.5    51    0.0     0      0.0   950.1    0.00       0    59.0
  26    3:50   50.9    52    0.1   206      1.1   950.1    0.00       0    58.9
  26    4:00   50.3    54    0.1   205      1.1   950.1    0.00       0    58.9
  26    4:10   49.9    55    0.0   337      0.7   950.1    0.00       0    58.8
  26    4:20   50.3    56    0.0   336      0.7   950.2    0.00       0    58.7
  26    4:30   49.7    56    0.0     0      0.0   950.1    0.00       0    58.7
  26    4:40   49.8    56    0.1   184      1.0   950.0    0.00       0    58.6
  26    4:50   50.2    55    0.4   178      2.0   950.0    0.00       0    58.5
  26    5:00   50.7    53    0.8   176      2.1   950.0    0.00       0    58.5
  26    5:10   50.0    54    0.8   180      2.2   950.0    0.00       0    58.4
  26    5:20   49.9    54    0.1   176      1.1   950.0    0.00       0    58.4
  26    5:30   50.7    52    1.1   175      2.3   950.1    0.00       0    58.3
  26    5:40   51.5    50    1.4   170      2.8   950.2    0.00       0    58.2
  26    5:50   52.4    48    1.0   168      1.9   950.2    0.00       0    58.1
  26    6:00   53.3    47    0.1   154      1.2   950.2    0.00       0    58.1
  26    6:10   52.9    48    1.0   160      1.9   950.3    0.00       0    58.0
  26    6:20   52.2    49    0.4   166      1.7   950.3    0.00       0    57.9
  26    6:30   52.8    48    1.3   164      2.0   950.5    0.00       0    57.8
  26    6:40   51.9    49    1.5   172      2.9   950.5    0.00       0    57.8
  26    6:50   51.9    49    0.8   169      3.1   950.5    0.00       3    57.7
  26    7:00   51.4    50    0.0     0      0.0   950.4    0.00       6    57.7
  26    7:10   51.2    51    0.0   168      0.4   950.5    0.00      15    57.6
  26    7:20   50.7    53    0.1   180      1.8   950.5    0.00      27    57.5
  26    7:30   51.0    52    1.1   179      2.6   950.5    0.00      46    57.5
  26    7:40   52.0    50    0.0   182      0.2   950.5    0.00      57    57.4
  26    7:50   52.4    51    0.2   183      0.7   950.6    0.00      63    57.3
  26    8:00   53.7    49    0.1   183      1.4   950.7    0.00      75    57.3
  26    8:10   54.7    47    0.3   174      1.6   950.6    0.00      96    57.2
  26    8:20   56.1    44    0.0   164      0.9   950.5    0.00     113    57.2
  26    8:30   57.8    41    0.0     0      0.0   950.5    0.00     129    57.1
  26    8:40   59.3    37    0.1   180      1.7   950.5    0.00     146    57.1
  26    8:50   59.8    34    0.1    66      2.0   950.6    0.00     141    57.0
  26    9:00   59.8    34    0.4    50      2.7   950.8    0.00     127    57.0
  26    9:10   60.0    34    0.5    49      2.9   950.8    0.00     181    57.0
  26    9:20   59.8    34    0.6    56      3.1   950.8    0.00     238    56.9
  26    9:30   60.3    34    0.4    42      2.5   950.9    0.00     226    56.9
  26    9:40   60.2    34    0.6    49      2.5   950.9    0.00     346    56.9
  26    9:50   61.2    33    0.1    40      1.7   951.0    0.00     351    56.9
  26   10:00   61.8    33    1.1    32      3.4   950.8    0.00     524    56.9
  26   10:10   62.3    32    0.7   171      2.5   950.8    0.00     545    56.9
  26   10:20   63.6    31    0.3   300      2.3   950.6    0.00     584    56.8
  26   10:30   64.3    30    0.9   190      4.3   950.7    0.00     589    56.8
  26   10:40   65.0    29    0.2    49      2.1   950.6    0.00     538    56.9
  26   10:50   65.2    28    0.3    52      3.9   950.4    0.00     316    56.9
  26   11:00   64.4    29    0.5    56      3.1   950.1    0.00     303    56.9
  26   11:10   64.8    28    0.8    73      2.9   950.1    0.00     531    56.9
  26   11:20   65.6    28    0.4    31      2.4   950.0    0.00     494    57.0
  26   11:30   66.0    27    1.2    39      4.1   949.8    0.00     542    57.1
  26   11:40   65.4    28    0.5    31      3.4   949.6    0.00     328    57.2
  26   11:50   65.5    28    0.9    30      3.0   949.3    0.00     355    57.3
  26   12:00   66.4    27    1.5    15      3.9   949.1    0.00     515    57.4
  26   12:10   66.5    27    0.6    50      2.7   949.0    0.00     364    57.5
  26   12:20   67.4    26    1.4    45      4.5   948.8    0.00     804    57.7
  26   12:30   68.5    26    0.8    41      3.4   948.7    0.00     687    57.8
  26   12:40   68.3    26    1.4    40      3.4   948.6    0.00     679    58.0
  26   12:50   69.6    25    1.1    26      4.3   948.4    0.00     660    58.1
  26   13:00   68.9    26    1.0    13      4.1   948.2    0.00     506    58.3
  26   13:10   70.7    24    1.0   182      3.8   948.1    0.00     553    58.4
  26   13:20   71.2    24    0.7    37      3.2   948.0    0.00     457    58.6
  26   13:30   69.5    25    1.2    34      4.1   947.8    0.00     281    58.8
  26   13:40   69.2    25    0.6    27      3.4   947.7    0.00     199    59.0
  26   13:50   69.2    25    0.9    53      3.6   947.7    0.00     209    59.2
  26   14:00   70.2    24    0.9   180      3.2   947.5    0.00     465    59.3
  26   14:10   70.9    23    1.2    33      3.5   947.5    0.00     265    59.5
  26   14:20   70.5    24    1.0   171      4.3   947.5    0.00     344    59.8
  26   14:30   70.3    24    2.1   183      4.7   947.6    0.00     149    60.0
  26   14:40   69.8    24    2.3   177      7.0   947.7    0.00     161    60.2
  26   14:50   70.1    24    0.7   180      3.2   947.7    0.00     143    60.3
  26   15:00   69.8    25    0.2    42      1.7   947.6    0.00      97    60.5
  26   15:10   69.1    25    0.5    30      1.8   947.7    0.00      96    60.7
  26   15:20   69.2    25    1.4   177      4.9   947.6    0.00     148    60.8
  26   15:30   69.0    25    1.8   178      5.4   947.7    0.00     110    61.0
  26   15:40   68.8    25    1.7   174      5.2   947.8    0.00      57    61.1
  26   15:50   68.4    25    2.9   170      5.6   947.8    0.00      39    61.2
  26   16:00   68.1    25    1.8   174      4.5   947.9    0.00      27    61.3
  26   16:10   68.1    25    2.8   170      4.5   947.8    0.00      22    61.5
  26   16:20   68.0    26    1.8   163      5.4   947.8    0.00      13    61.6
  26   16:30   67.7    26    2.0   173      4.2   947.8    0.00      11    61.7
  26   16:40   67.7    26    2.1   177      4.7   947.8    0.00       8    61.7
  26   16:50   67.6    26    2.0   201      4.0   947.6    0.00       5    61.8
  26   17:00   67.5    26    2.4   180      4.2   947.6    0.00       4    61.9
  26   17:10   67.4    26    2.6   178      5.6   947.8    0.00       3    62.0
  26   17:20   67.2    28    3.4   180      7.5   948.0    0.00       0    62.0
  26   17:30   65.0    38    3.8   172      9.0   948.2    0.00       0    62.0
  26   17:40   63.0    45    1.7   190      3.1   948.0    0.01       0    62.1
  26   17:50   61.8    49    3.5   179      8.1   948.3    0.00       1    62.1
  26   18:00   61.8    50    3.5   206      7.5   948.4    0.00       0    62.1
  26   18:10   61.4    52    3.4   204      6.1   948.3    0.00       0    62.1
  26   18:20   60.6    55    3.8   202      6.1   948.3    0.00       0    62.1
  26   18:30   60.1    58    2.2   199      5.6   948.4    0.00       0    62.1
  26   18:40   59.9    57    2.5   178      5.3   948.7    0.01       0    62.1
  26   18:50   59.5    62    1.3   190      2.7   948.7    0.00       0    62.1
  26   19:00   59.1    65    1.8   267      4.2   948.5    0.01       0    62.1
  26   19:10   59.5    63    2.1   220      5.6   948.6    0.00       1    62.0
  26   19:20   59.5    61    0.7   196      2.9   948.5    0.00       0    62.0
  26   19:30   59.3    62    1.0   166      3.0   948.7    0.00       0    62.0
  26   19:40   59.9    60    1.3   259      4.0   948.7    0.00       0    61.9
  26   19:50   60.2    61    1.1   268      5.0   948.8    0.00       0    61.8
  26   20:00   59.9    61    1.6   202      3.5   948.8    0.00       0    61.8
  26   20:10   59.9    61    1.9   208      4.4   948.8    0.00       0    61.7
  26   20:20   59.8    61    2.4   189      5.7   949.0    0.00       0    61.6
  26   20:30   59.1    67    4.3   170      8.7   949.3    0.00       0    61.6
  26   20:40   58.4    69    3.7   172      8.2   949.2    0.00       0    61.5
  26   20:50   58.6    66    3.3   208      6.4   948.9    0.00       0    61.5
  26   21:00   59.0    63    2.6   223      5.0   948.8    0.00       0    61.4
  26   21:10   59.2    62    3.7   202     10.2   949.1    0.00       0    61.4
  26   21:20   58.7    62    4.6   201     11.9   949.2    0.00       0    61.3
  26   21:30   58.7    62    2.9   178      6.1   949.6    0.00       0    61.3
  26   21:40   58.1    67    4.4   173      7.8   949.9    0.00       0    61.2
  26   21:50   57.2    71    5.1   184      8.8   949.9    0.00       0    61.2
  26   22:00   57.2    71    6.5   168     12.7   950.1    0.00       0    61.1
  26   22:10   57.2    71    5.2   179      9.5   950.1    0.00       0    61.0
  26   22:20   57.3    70    3.2   175      6.7   950.2    0.00       0    61.0
  26   22:30   57.3    69    1.0   175      4.1   950.3    0.00       0    60.9
  26   22:40   57.2    69    0.9   210      4.2   950.2    0.00       0    60.9
  26   22:50   57.4    68    0.5   190      2.4   950.2    0.01       0    60.8
  26   23:00   56.6    74    0.0   152      0.3   950.3    0.00       0    60.7
  26   23:10   56.2    77    0.0     0      0.0   950.2    0.00       1    60.7
  26   23:20   55.9    81    0.0     0      0.0   950.2    0.00       0    60.6
  26   23:30   55.7    82    0.0     0      0.0   950.3    0.00       0    60.5
  26   23:40   55.6    83    0.5    58      2.1   950.4    0.00       0    60.5
  26   23:50   55.5    83    0.3   173      2.3   950.8    0.00       0    60.4
  27    0:00   55.0    83    4.3   173      9.1   951.2    0.01       0    60.4
  27    0:10   54.2    85    2.1   174      7.9   951.2    0.03       0    60.3
  27    0:20   53.6    87    2.0   124      4.5   950.7    0.03       0    60.3
  27    0:30   53.0    88    2.4   196      6.0   951.0    0.00       0    60.2
  27    0:40   52.9    86    3.0   176      5.3   951.0    0.00       0    60.2
  27    0:50   53.1    85    3.5   170      5.4   951.1    0.01       0    60.1
  27    1:00   53.0    86    4.0   169      7.3   951.1    0.00       0    60.1
  27    1:10   52.9    87    3.5   168      6.4   951.3    0.01       0    60.0

Return to Las Vegas, Nevada graphs page.


Western Regional Climate Center,wrcc@dri.edu